Ecokeeper — SVTY — position and weather

sailwx.info

Track history (hours):
 
Tides and Currents Weather Stations Pressure Air Temp Water Temp Dewpoint Dewpoint Depression Visibility Wind Speed Wind Dir Waves Ship Positions

Ecokeeper

Last reported at 2016-Feb-10 06:33 UTC. Time now 2016-Feb-10 10:41 UTC.
Position N 37°57' E 023°34'.

Length 90 m; draft 4.8 m.

Type: Tanker. MMSI: 240689000.

Date/timePositionNaut miles runAvg speedWind from/ knotsBaromVisibWave heightAir tempDewpointWater temp
2016-Feb-10 06:33N 37°57' E 023°34'5 4.7
2016-Feb-10 05:31N 38°02' E 023°36'0 0.0
2016-Feb-10 04:31N 38°02' E 023°36'0 0.0
2016-Feb-10 03:31N 38°02' E 023°36'0 0.0
2016-Feb-10 02:31N 38°02' E 023°36'0 0.0
2016-Feb-10 01:31N 38°02' E 023°36'0 0.0
2016-Feb-10 00:31N 38°02' E 023°36'0 0.0
2016-Feb-09 23:31N 38°02' E 023°36'0 0.0
2016-Feb-09 22:25N 38°02' E 023°36'0 0.0
2016-Feb-09 21:31N 38°02' E 023°36'0 0.0
2016-Feb-09 20:31N 38°02' E 023°36'0 0.0
2016-Feb-09 19:31N 38°02' E 023°36'0 0.0
2016-Feb-09 18:31N 38°02' E 023°36'0 0.0
2016-Feb-09 17:31N 38°02' E 023°36'0 0.0
2016-Feb-09 16:31N 38°02' E 023°36'0 0.0
2016-Feb-09 15:31N 38°02' E 023°36'0 0.0
2016-Feb-09 14:31N 38°02' E 023°36'0 0.0
2016-Feb-09 13:31N 38°02' E 023°36'0 0.0
2016-Feb-09 12:28N 38°02' E 023°36'0 0.0
2016-Feb-09 11:31N 38°02' E 023°36'0 0.0
2016-Feb-09 10:31N 38°02' E 023°36'0 0.1
2016-Feb-09 09:31N 38°02' E 023°36'5 4.9
2016-Feb-09 08:33N 37°57' E 023°34'0 0.2
2016-Feb-09 07:33N 37°57' E 023°34'0 0.0
2016-Feb-09 06:33N 37°57' E 023°34'0 0.0
2016-Feb-08 09:16N 37°57' E 023°34'4 5.1
2016-Feb-08 08:33N 38°01' E 023°34'2 1.8
2016-Feb-08 07:32N 38°02' E 023°36'0 0.0
2016-Feb-08 06:32N 38°02' E 023°36'0 0.0
2016-Feb-08 05:32N 38°02' E 023°36'0 0.0
2016-Feb-08 04:32N 38°02' E 023°36'0 0.0
2016-Feb-08 03:32N 38°02' E 023°36'0 0.0
2016-Feb-08 02:32N 38°02' E 023°36'0 0.0
2016-Feb-08 01:32N 38°02' E 023°36'0 0.0
2016-Feb-08 00:32N 38°02' E 023°36'0 0.0
2016-Feb-07 23:32N 38°02' E 023°36'0 0.0
2016-Feb-07 22:32N 38°02' E 023°36'0 0.0
2016-Feb-07 21:32N 38°02' E 023°36'0 0.0
2016-Feb-07 20:32N 38°02' E 023°36'0 0.0
2016-Feb-07 19:29N 38°02' E 023°36'0 0.0
2016-Feb-07 18:32N 38°02' E 023°36'0 0.0
2016-Feb-07 17:32N 38°02' E 023°36'0 0.0
2016-Feb-07 16:32N 38°02' E 023°36'0 0.0
2016-Feb-07 15:32N 38°02' E 023°36'0 0.0
2016-Feb-07 14:32N 38°02' E 023°36'0 0.0
2016-Feb-07 13:32N 38°02' E 023°36'0 0.0
2016-Feb-07 12:32N 38°02' E 023°36'0 0.0
2016-Feb-07 11:32N 38°02' E 023°36'0 0.0
2016-Feb-07 10:32N 38°02' E 023°36'0 0.0
2016-Feb-07 09:32N 38°02' E 023°36'0 0.0
2016-Feb-07 08:32N 38°02' E 023°36'0 0.5
2016-Feb-07 07:33N 38°02' E 023°35'3 3.0
2016-Feb-07 06:33N 37°59' E 023°33'3 0.1
2016-Feb-05 17:33N 37°57' E 023°35'6 4.8
2016-Feb-05 16:21N 37°52' E 023°31'0 0.1
2016-Feb-05 15:33N 37°52' E 023°31'0 0.0
2016-Feb-05 14:27N 37°52' E 023°31'0 0.0
2016-Feb-05 12:33N 37°52' E 023°31'0 0.0
2016-Feb-05 11:12N 37°52' E 023°31'0 0.0
2016-Feb-05 10:33N 37°52' E 023°31'0 0.1
2016-Feb-05 08:30N 37°52' E 023°31'6 5.9
2016-Feb-05 07:33N 37°57' E 023°34'0 0.2
2016-Feb-05 06:31N 37°57' E 023°34'0 0.0
2016-Feb-04 16:28N 37°57' E 023°34'0 0.3
2016-Feb-04 15:34N 37°57' E 023°34'0 0.0
2016-Feb-04 14:34N 37°57' E 023°34'0 0.0
2016-Feb-04 13:31N 37°57' E 023°34'0 0.0
2016-Feb-04 12:31N 37°57' E 023°34'0 0.0
2016-Feb-04 11:31N 37°57' E 023°34'0 0.0
2016-Feb-04 10:31N 37°57' E 023°34'2 1.9
2016-Feb-04 09:33N 37°55' E 023°33'0 0.1
2016-Feb-04 08:33N 37°55' E 023°33'0 0.0
2016-Feb-04 07:33N 37°55' E 023°33'2 1.8
2016-Feb-04 06:33N 37°57' E 023°35'1 0.0
2016-Feb-02 23:24N 37°57' E 023°34'4 4.8
2016-Feb-02 22:33N 37°53' E 023°31'4 3.6
2016-Feb-02 21:33N 37°50' E 023°29'0 0.0
2016-Feb-02 20:33N 37°50' E 023°29'0 0.0
2016-Feb-02 19:33N 37°50' E 023°29'0 0.0
2016-Feb-02 18:33N 37°50' E 023°29'0 0.0
2016-Feb-02 17:33N 37°50' E 023°29'0 0.0
2016-Feb-02 16:33N 37°50' E 023°29'0 0.1
2016-Feb-02 15:33N 37°51' E 023°29'2 2.2
2016-Feb-02 14:33N 37°50' E 023°31'4 3.8
2016-Feb-02 13:33N 37°54' E 023°32'0 0.1
2016-Feb-02 12:33N 37°54' E 023°32'0 0.1
2016-Feb-02 11:33N 37°54' E 023°32'0 0.0
2016-Feb-02 10:33N 37°54' E 023°32'0 0.1
2016-Feb-02 09:33N 37°54' E 023°32'0 0.2
2016-Feb-02 08:33N 37°54' E 023°32'4 3.7
2016-Feb-02 07:33N 37°57' E 023°34'0 0.0
2016-Feb-02 06:33N 37°57' E 023°34'0 0.0
2016-Feb-01 13:13N 37°57' E 023°34'0 0.0
2016-Feb-01 12:33N 37°57' E 023°34'0 0.0
2016-Feb-01 11:33N 37°57' E 023°34'0 0.0
2016-Feb-01 10:33N 37°57' E 023°34'0 0.0
2016-Feb-01 09:34N 37°57' E 023°34'0 0.0
2016-Feb-01 08:33N 37°57' E 023°34'0 0.0
2016-Feb-01 07:33N 37°57' E 023°34'0 0.0
2016-Feb-01 06:33N 37°57' E 023°34'  
Track history (hours):
 
Tides and Currents Weather Stations Pressure Air Temp Water Temp Dewpoint Dewpoint Depression Visibility Wind Speed Wind Dir Waves Ship Positions

Ecokeeper

Last reported at 2016-Feb-10 06:33 UTC. Time now 2016-Feb-10 10:41 UTC.
Position N 37°57' E 023°34'.

Length 90 m; draft 4.8 m.

Type: Tanker. MMSI: 240689000.

Date/timePositionNaut miles runAvg speedWind from/ knotsBaromVisibWave heightAir tempDewpointWater temp
2016-Feb-10 06:33N 37°57' E 023°34'5 4.7
2016-Feb-10 05:31N 38°02' E 023°36'0 0.0
2016-Feb-10 04:31N 38°02' E 023°36'0 0.0
2016-Feb-10 03:31N 38°02' E 023°36'0 0.0
2016-Feb-10 02:31N 38°02' E 023°36'0 0.0
2016-Feb-10 01:31N 38°02' E 023°36'0 0.0
2016-Feb-10 00:31N 38°02' E 023°36'0 0.0
2016-Feb-09 23:31N 38°02' E 023°36'0 0.0
2016-Feb-09 22:25N 38°02' E 023°36'0 0.0
2016-Feb-09 21:31N 38°02' E 023°36'0 0.0
2016-Feb-09 20:31N 38°02' E 023°36'0 0.0
2016-Feb-09 19:31N 38°02' E 023°36'0 0.0
2016-Feb-09 18:31N 38°02' E 023°36'0 0.0
2016-Feb-09 17:31N 38°02' E 023°36'0 0.0
2016-Feb-09 16:31N 38°02' E 023°36'0 0.0
2016-Feb-09 15:31N 38°02' E 023°36'0 0.0
2016-Feb-09 14:31N 38°02' E 023°36'0 0.0
2016-Feb-09 13:31N 38°02' E 023°36'0 0.0
2016-Feb-09 12:28N 38°02' E 023°36'0 0.0
2016-Feb-09 11:31N 38°02' E 023°36'0 0.0
2016-Feb-09 10:31N 38°02' E 023°36'0 0.1
2016-Feb-09 09:31N 38°02' E 023°36'5 4.9
2016-Feb-09 08:33N 37°57' E 023°34'0 0.2
2016-Feb-09 07:33N 37°57' E 023°34'0 0.0
2016-Feb-09 06:33N 37°57' E 023°34'0 0.0
2016-Feb-08 09:16N 37°57' E 023°34'4 5.1
2016-Feb-08 08:33N 38°01' E 023°34'2 1.8
2016-Feb-08 07:32N 38°02' E 023°36'0 0.0
2016-Feb-08 06:32N 38°02' E 023°36'0 0.0
2016-Feb-08 05:32N 38°02' E 023°36'0 0.0
2016-Feb-08 04:32N 38°02' E 023°36'0 0.0
2016-Feb-08 03:32N 38°02' E 023°36'0 0.0
2016-Feb-08 02:32N 38°02' E 023°36'0 0.0
2016-Feb-08 01:32N 38°02' E 023°36'0 0.0
2016-Feb-08 00:32N 38°02' E 023°36'0 0.0
2016-Feb-07 23:32N 38°02' E 023°36'0 0.0
2016-Feb-07 22:32N 38°02' E 023°36'0 0.0
2016-Feb-07 21:32N 38°02' E 023°36'0 0.0
2016-Feb-07 20:32N 38°02' E 023°36'0 0.0
2016-Feb-07 19:29N 38°02' E 023°36'0 0.0
2016-Feb-07 18:32N 38°02' E 023°36'0 0.0
2016-Feb-07 17:32N 38°02' E 023°36'0 0.0
2016-Feb-07 16:32N 38°02' E 023°36'0 0.0
2016-Feb-07 15:32N 38°02' E 023°36'0 0.0
2016-Feb-07 14:32N 38°02' E 023°36'0 0.0
2016-Feb-07 13:32N 38°02' E 023°36'0 0.0
2016-Feb-07 12:32N 38°02' E 023°36'0 0.0
2016-Feb-07 11:32N 38°02' E 023°36'0 0.0
2016-Feb-07 10:32N 38°02' E 023°36'0 0.0
2016-Feb-07 09:32N 38°02' E 023°36'0 0.0
2016-Feb-07 08:32N 38°02' E 023°36'0 0.5
2016-Feb-07 07:33N 38°02' E 023°35'3 3.0
2016-Feb-07 06:33N 37°59' E 023°33'3 0.1
2016-Feb-05 17:33N 37°57' E 023°35'6 4.8
2016-Feb-05 16:21N 37°52' E 023°31'0 0.1
2016-Feb-05 15:33N 37°52' E 023°31'0 0.0
2016-Feb-05 14:27N 37°52' E 023°31'0 0.0
2016-Feb-05 12:33N 37°52' E 023°31'0 0.0
2016-Feb-05 11:12N 37°52' E 023°31'0 0.0
2016-Feb-05 10:33N 37°52' E 023°31'0 0.1
2016-Feb-05 08:30N 37°52' E 023°31'6 5.9
2016-Feb-05 07:33N 37°57' E 023°34'0 0.2
2016-Feb-05 06:31N 37°57' E 023°34'0 0.0
2016-Feb-04 16:28N 37°57' E 023°34'0 0.3
2016-Feb-04 15:34N 37°57' E 023°34'0 0.0
2016-Feb-04 14:34N 37°57' E 023°34'0 0.0
2016-Feb-04 13:31N 37°57' E 023°34'0 0.0
2016-Feb-04 12:31N 37°57' E 023°34'0 0.0
2016-Feb-04 11:31N 37°57' E 023°34'0 0.0
2016-Feb-04 10:31N 37°57' E 023°34'2 1.9
2016-Feb-04 09:33N 37°55' E 023°33'0 0.1
2016-Feb-04 08:33N 37°55' E 023°33'0 0.0
2016-Feb-04 07:33N 37°55' E 023°33'2 1.8
2016-Feb-04 06:33N 37°57' E 023°35'1 0.0
2016-Feb-02 23:24N 37°57' E 023°34'4 4.8
2016-Feb-02 22:33N 37°53' E 023°31'4 3.6
2016-Feb-02 21:33N 37°50' E 023°29'0 0.0
2016-Feb-02 20:33N 37°50' E 023°29'0 0.0
2016-Feb-02 19:33N 37°50' E 023°29'0 0.0
2016-Feb-02 18:33N 37°50' E 023°29'0 0.0
2016-Feb-02 17:33N 37°50' E 023°29'0 0.0
2016-Feb-02 16:33N 37°50' E 023°29'0 0.1
2016-Feb-02 15:33N 37°51' E 023°29'2 2.2
2016-Feb-02 14:33N 37°50' E 023°31'4 3.8
2016-Feb-02 13:33N 37°54' E 023°32'0 0.1
2016-Feb-02 12:33N 37°54' E 023°32'0 0.1
2016-Feb-02 11:33N 37°54' E 023°32'0 0.0
2016-Feb-02 10:33N 37°54' E 023°32'0 0.1
2016-Feb-02 09:33N 37°54' E 023°32'0 0.2
2016-Feb-02 08:33N 37°54' E 023°32'4 3.7
2016-Feb-02 07:33N 37°57' E 023°34'0 0.0
2016-Feb-02 06:33N 37°57' E 023°34'0 0.0
2016-Feb-01 13:13N 37°57' E 023°34'0 0.0
2016-Feb-01 12:33N 37°57' E 023°34'0 0.0
2016-Feb-01 11:33N 37°57' E 023°34'0 0.0
2016-Feb-01 10:33N 37°57' E 023°34'0 0.0
2016-Feb-01 09:34N 37°57' E 023°34'0 0.0
2016-Feb-01 08:33N 37°57' E 023°34'0 0.0
2016-Feb-01 07:33N 37°57' E 023°34'0 0.0
2016-Feb-01 06:33N 37°57' E 023°34'  

Dump ship's entire track history